createdAt,value
2018-12-13T00:03:22.231Z,100468.11
2018-12-13T00:07:27.214Z,100468.45
2018-12-13T00:11:32.253Z,100472.80
2018-12-13T00:15:37.147Z,100481.25
2018-12-13T00:19:42.087Z,100470.38
2018-12-13T00:23:47.035Z,100473.30
2018-12-13T00:27:52.052Z,100473.30
2018-12-13T00:31:57.091Z,100470.87
2018-12-13T00:36:02.077Z,100470.39
2018-12-13T00:40:07.080Z,100475.12
2018-12-13T00:44:12.051Z,100472.70
2018-12-13T00:48:17.427Z,100471.23
2018-12-13T00:52:22.383Z,100469.47
2018-12-13T00:56:27.293Z,100475.37
2018-12-13T01:00:32.341Z,100473.61
2018-12-13T01:04:37.227Z,100481.63
2018-12-13T01:08:42.182Z,100484.56
2018-12-13T01:12:47.203Z,100486.66
2018-12-13T01:16:52.140Z,100481.47
2018-12-13T01:20:57.115Z,100487.45
2018-12-13T01:25:02.076Z,100487.95
2018-12-13T01:29:07.019Z,100487.16
2018-12-13T01:33:12.020Z,100487.70
2018-12-13T01:37:16.988Z,100488.45
2018-12-13T01:41:21.972Z,100481.88
2018-12-13T01:45:26.890Z,100482.43
2018-12-13T01:49:31.935Z,100473.61
2018-12-13T01:53:36.868Z,100480.25
2018-12-13T01:57:41.844Z,100474.76
2018-12-13T02:01:46.820Z,100469.23
2018-12-13T02:05:51.814Z,100474.97
2018-12-13T02:09:56.812Z,100461.39
2018-12-13T02:14:01.864Z,100465.84
2018-12-13T02:18:07.156Z,100463.72
2018-12-13T02:22:12.154Z,100465.91
2018-12-13T02:26:17.101Z,100472.08
2018-12-13T02:30:22.399Z,100470.45
2018-12-13T02:34:27.621Z,100466.23
2018-12-13T02:38:32.680Z,100463.31
2018-12-13T02:42:37.641Z,100461.70
2018-12-13T02:46:42.734Z,100458.39
2018-12-13T02:50:47.685Z,100464.12
2018-12-13T02:54:52.679Z,100459.77
2018-12-13T02:58:57.667Z,100453.84
2018-12-13T03:03:02.672Z,100457.81
2018-12-13T03:07:13.636Z,100456.05
2018-12-13T03:11:15.052Z,100462.03
2018-12-13T03:15:20.057Z,100456.26
2018-12-13T03:19:25.068Z,100456.26
2018-12-13T03:23:30.018Z,100458.47
2018-12-13T03:27:53.837Z,100453.38
2018-12-13T03:31:58.841Z,100447.86
2018-12-13T03:36:03.786Z,100452.62
2018-12-13T03:40:08.676Z,100451.66
2018-12-13T03:44:13.708Z,100446.89
2018-12-13T03:48:18.639Z,100442.09
2018-12-13T03:52:30.865Z,100431.02
2018-12-13T03:56:35.770Z,100433.19
2018-12-13T04:00:40.802Z,100434.02
2018-12-13T04:04:45.839Z,100435.45
2018-12-13T04:08:50.867Z,100433.86
2018-12-13T04:12:55.826Z,100435.62
2018-12-13T04:17:00.860Z,100437.09
2018-12-13T04:21:05.766Z,100430.11
2018-12-13T04:25:10.740Z,100433.03
2018-12-13T04:29:15.676Z,100432.56
2018-12-13T04:33:20.630Z,100434.33
2018-12-13T04:37:25.562Z,100433.66
2018-12-13T04:41:30.544Z,100434.00
2018-12-13T04:45:35.596Z,100442.19
2018-12-13T04:49:40.609Z,100440.14
2018-12-13T04:53:45.595Z,100434.66
2018-12-13T04:57:50.591Z,100433.03
2018-12-13T05:01:55.546Z,100434.80
2018-12-13T05:06:00.552Z,100433.36
2018-12-13T05:10:05.974Z,100436.44
2018-12-13T05:14:10.938Z,100436.61
2018-12-13T05:18:15.996Z,100435.62
2018-12-13T05:22:20.945Z,100434.31
2018-12-13T05:26:25.976Z,100436.61
2018-12-13T05:30:30.920Z,100434.98
2018-12-13T05:34:36.009Z,100438.13
2018-12-13T05:38:40.950Z,100434.02
2018-12-13T05:42:45.947Z,100435.23
2018-12-13T05:46:50.914Z,100438.38
2018-12-13T05:50:55.901Z,100429.14
2018-12-13T05:55:00.966Z,100436.28
2018-12-13T05:59:05.932Z,100436.77
2018-12-13T06:03:10.811Z,100436.67
2018-12-13T06:07:15.776Z,100440.65
2018-12-13T06:11:20.876Z,100440.82
2018-12-13T06:15:25.849Z,100448.44
2018-12-13T06:19:30.982Z,100450.03
2018-12-13T06:23:35.892Z,100454.25
2018-12-13T06:27:40.858Z,100460.01
2018-12-13T06:31:46.172Z,100465.50
2018-12-13T06:35:51.165Z,100466.78
2018-12-13T06:39:56.093Z,100478.76
2018-12-13T06:44:01.065Z,100482.05
2018-12-13T06:48:06.038Z,100487.34
2018-12-13T06:52:11.061Z,100485.74
2018-12-13T06:56:15.946Z,100487.94
2018-12-13T07:00:20.857Z,100484.31
2018-12-13T07:04:25.845Z,100486.81
2018-12-13T07:08:30.797Z,100490.11
2018-12-13T07:12:35.781Z,100488.27
2018-12-13T07:16:40.733Z,100491.19
2018-12-13T07:20:45.732Z,100489.15
2018-12-13T07:24:50.649Z,100482.91
2018-12-13T07:28:55.626Z,100479.91
2018-12-13T07:33:00.706Z,100471.42
2018-12-13T07:37:05.742Z,100476.84
2018-12-13T07:41:10.663Z,100472.46
2018-12-13T07:45:15.611Z,100470.75
2018-12-13T07:49:20.551Z,100470.59
2018-12-13T07:53:25.498Z,100469.00
2018-12-13T07:57:30.474Z,100469.00
2018-12-13T08:01:35.478Z,100472.30
2018-12-13T08:05:40.791Z,100467.37
2018-12-13T08:09:45.779Z,100465.75
2018-12-13T08:13:50.802Z,100463.66
2018-12-13T08:17:55.741Z,100464.63
2018-12-13T08:22:00.750Z,100471.41
2018-12-13T08:26:05.726Z,100467.20
2018-12-13T08:30:10.930Z,100470.45
2018-12-13T08:34:16.048Z,100465.09
2018-12-13T08:38:27.097Z,100471.35
2018-12-13T08:42:27.895Z,100470.75
2018-12-13T08:46:36.449Z,100474.00
2018-12-13T08:50:39.793Z,100480.16
2018-12-13T08:54:44.755Z,100481.92
2018-12-13T08:58:49.746Z,100490.20
2018-12-13T09:02:54.686Z,100479.83
2018-12-13T09:06:59.704Z,100483.39
2018-12-13T09:11:04.786Z,100473.34
2018-12-13T09:15:09.733Z,100478.28
2018-12-13T09:19:14.749Z,100477.23
2018-12-13T09:23:19.714Z,100473.34
2018-12-13T09:27:24.717Z,100464.60
2018-12-13T09:31:30.055Z,100466.57
2018-12-13T09:35:35.007Z,100465.41
2018-12-13T09:39:39.916Z,100466.88
2018-12-13T09:43:45.554Z,100463.73
2018-12-13T09:47:51.794Z,100462.53
2018-12-13T09:51:56.766Z,100450.20
2018-12-13T10:00:12.795Z,100438.84
2018-12-13T10:04:17.761Z,100442.11
2018-12-13T10:08:22.704Z,100433.13
2018-12-13T10:12:27.737Z,100436.09
2018-12-13T10:16:32.744Z,100431.41
2018-12-13T10:20:37.690Z,100421.84
2018-12-13T10:24:42.640Z,100419.25
2018-12-13T10:28:47.603Z,100417.57
2018-12-13T10:32:52.601Z,100413.77
2018-12-13T10:36:57.534Z,100420.16
2018-12-13T10:41:02.597Z,100412.72
2018-12-13T10:45:07.704Z,100409.71
2018-12-13T10:49:12.675Z,100406.81
2018-12-13T10:53:17.744Z,100400.55
2018-12-13T10:57:22.668Z,100407.77
2018-12-13T11:01:46.281Z,100409.31
2018-12-13T11:05:51.137Z,100408.25
2018-12-13T11:09:56.122Z,100404.70
2018-12-13T11:14:01.039Z,100401.53
2018-12-13T11:18:06.099Z,100399.66
2018-12-13T11:22:11.035Z,100405.98
2018-12-13T11:26:16.049Z,100403.72
2018-12-13T11:30:39.891Z,100400.88
2018-12-13T11:34:44.906Z,100391.27
2018-12-13T11:38:49.826Z,100392.47
2018-12-13T11:42:54.883Z,100389.88
2018-12-13T11:46:59.902Z,100392.89
2018-12-13T11:51:04.888Z,100386.88
2018-12-13T11:55:47.546Z,100385.25
2018-12-13T11:59:52.519Z,100386.55
2018-12-13T12:03:57.552Z,100378.31
2018-12-13T12:08:02.507Z,100376.10
2018-12-13T12:12:07.539Z,100367.62
2018-12-13T12:16:12.735Z,100365.02
2018-12-13T12:20:18.096Z,100368.41
2018-12-13T12:28:48.889Z,100364.86
2018-12-13T12:32:53.832Z,100367.62
2018-12-13T12:36:58.698Z,100366.87
2018-12-13T12:41:03.729Z,100365.56
2018-12-13T12:45:48.090Z,100372.46
2018-12-13T12:49:53.157Z,100360.47
2018-12-13T12:53:58.042Z,100363.22
2018-12-13T12:58:21.855Z,100367.32
2018-12-13T13:06:38.814Z,100371.25
2018-12-13T13:10:43.754Z,100368.41
2018-12-13T13:14:48.633Z,100373.09
2018-12-13T13:18:53.978Z,100372.72
2018-12-13T13:22:58.900Z,100374.02
2018-12-13T13:27:03.945Z,100375.72
2018-12-13T13:31:09.000Z,100363.73
2018-12-13T13:35:14.050Z,100365.19
2018-12-13T13:39:19.373Z,100367.75
2018-12-13T13:43:24.313Z,100375.34
2018-12-13T13:47:29.314Z,100380.78
2018-12-13T13:51:34.290Z,100375.60
2018-12-13T13:55:39.712Z,100374.26
2018-12-13T13:59:44.734Z,100374.84
2018-12-13T14:03:50.230Z,100377.18
2018-12-13T14:07:55.238Z,100375.47
2018-12-13T14:12:00.122Z,100378.97
2018-12-13T14:16:05.086Z,100375.55
2018-12-13T14:20:10.140Z,100380.43
2018-12-13T14:24:15.120Z,100377.18
2018-12-13T14:28:20.096Z,100376.34
2018-12-13T14:32:25.059Z,100371.91
2018-12-13T14:36:30.084Z,100370.95
2018-12-13T14:40:35.006Z,100378.94
2018-12-13T14:44:40.009Z,100382.19
2018-12-13T14:48:45.318Z,100383.23
2018-12-13T14:52:50.228Z,100388.84
2018-12-13T14:56:55.166Z,100386.00
2018-12-13T15:01:00.174Z,100386.25
2018-12-13T15:05:05.220Z,100389.97
2018-12-13T15:09:10.347Z,100384.04
2018-12-13T15:13:15.415Z,100384.04
2018-12-13T15:17:20.356Z,100384.28
2018-12-13T15:21:25.297Z,100381.36
2018-12-13T15:25:30.189Z,100381.20
2018-12-13T15:29:35.599Z,100377.98
2018-12-13T15:33:40.599Z,100380.16
2018-12-13T15:37:45.501Z,100387.52
2018-12-13T15:41:50.448Z,100382.33
2018-12-13T15:45:55.425Z,100384.05
2018-12-13T15:50:00.398Z,100372.96
2018-12-13T15:54:05.324Z,100371.55
2018-12-13T15:58:10.439Z,100368.48
2018-12-13T16:02:15.366Z,100376.64
2018-12-13T16:06:20.322Z,100366.53
2018-12-13T16:10:25.365Z,100369.63
2018-12-13T16:14:30.507Z,100366.78
2018-12-13T16:18:35.552Z,100368.41
2018-12-13T16:22:40.508Z,100364.69
2018-12-13T16:26:45.423Z,100364.69
2018-12-13T16:30:50.398Z,100364.02
2018-12-13T16:34:55.408Z,100368.53
2018-12-13T16:39:00.382Z,100373.26
2018-12-13T16:43:05.331Z,100378.94
2018-12-13T16:47:10.330Z,100373.77
2018-12-13T16:51:15.269Z,100372.46
2018-12-13T16:55:20.337Z,100369.70
2018-12-13T16:59:25.389Z,100372.77
2018-12-13T17:03:49.276Z,100372.22
2018-12-13T17:07:54.288Z,100372.30
2018-12-13T17:11:59.232Z,100372.80
2018-12-13T17:16:04.153Z,100369.08
2018-12-13T17:20:09.027Z,100372.63
2018-12-13T17:24:13.992Z,100375.55
2018-12-13T17:28:18.914Z,100369.54
2018-12-13T17:32:23.884Z,100382.03
2018-12-13T17:36:28.868Z,100378.77
2018-12-13T17:40:33.774Z,100383.33
2018-12-13T17:44:38.698Z,100380.08
2018-12-13T17:48:44.118Z,100384.79
2018-12-13T17:52:49.202Z,100382.83
2018-12-13T17:56:54.209Z,100375.55
2018-12-13T18:00:59.202Z,100382.16
2018-12-13T18:05:04.156Z,100382.16
2018-12-13T18:09:09.669Z,100385.59
2018-12-13T18:13:14.619Z,100386.88
2018-12-13T18:17:19.601Z,100391.56
2018-12-13T18:21:24.566Z,100390.77
2018-12-13T18:25:29.566Z,100394.73
2018-12-13T18:29:34.841Z,100396.11
2018-12-13T18:33:40.064Z,100405.26
2018-12-13T18:37:45.080Z,100399.66
2018-12-13T18:41:49.998Z,100402.25
2018-12-13T18:45:54.952Z,100406.47
2018-12-13T18:49:59.913Z,100405.92
2018-12-13T18:54:04.861Z,100406.06
2018-12-13T18:58:09.807Z,100404.22
2018-12-13T19:02:14.767Z,100406.64
2018-12-13T19:06:19.645Z,100408.90
2018-12-13T19:10:24.636Z,100403.41
2018-12-13T19:14:29.616Z,100415.41
2018-12-13T19:18:34.552Z,100411.66
2018-12-13T19:22:39.538Z,100419.92
2018-12-13T19:26:44.938Z,100423.32
2018-12-13T19:30:49.917Z,100423.09
2018-12-13T19:35:00.165Z,100431.10
2018-12-13T19:39:01.851Z,100431.89
2018-12-13T19:43:06.803Z,100419.91
2018-12-13T19:47:11.755Z,100427.42
2018-12-13T19:51:16.669Z,100437.08
2018-12-13T19:55:21.602Z,100437.42
2018-12-13T19:59:26.464Z,100437.64
2018-12-13T20:03:31.403Z,100445.00
2018-12-13T20:07:36.463Z,100449.55
2018-12-13T20:11:41.578Z,100457.57
2018-12-13T20:15:46.691Z,100447.94
2018-12-13T20:20:00.065Z,100446.16
2018-12-13T20:28:53.258Z,100448.38
2018-12-13T20:32:58.337Z,100452.75
2018-12-13T20:37:03.414Z,100460.67
2018-12-13T20:41:08.458Z,100450.22
2018-12-13T20:45:13.400Z,100444.73
2018-12-13T20:49:18.350Z,100456.79
2018-12-13T20:53:23.342Z,100449.64
2018-12-13T20:57:28.311Z,100448.25
2018-12-13T21:01:33.234Z,100448.99
2018-12-13T21:05:38.191Z,100447.34
2018-12-13T21:09:43.229Z,100445.73
2018-12-13T21:13:48.211Z,100444.44
2018-12-13T21:17:53.173Z,100447.44
2018-12-13T21:21:58.523Z,100442.84
2018-12-13T21:26:03.490Z,100448.17
2018-12-13T21:30:08.828Z,100457.00
2018-12-13T21:34:36.734Z,100460.97
2018-12-13T21:38:41.725Z,100457.64
2018-12-13T21:42:46.750Z,100460.97
2018-12-13T21:46:51.721Z,100460.00
2018-12-13T21:50:56.744Z,100458.70
2018-12-13T21:55:01.668Z,100452.91
2018-12-13T21:59:06.665Z,100452.96
2018-12-13T22:03:11.715Z,100457.11
2018-12-13T22:07:16.669Z,100454.84
2018-12-13T22:11:21.713Z,100454.84
2018-12-13T22:15:26.656Z,100460.34
2018-12-13T22:19:31.636Z,100456.64
2018-12-13T22:23:36.611Z,100457.61
2018-12-13T22:27:41.556Z,100451.84
2018-12-13T22:35:59.283Z,100456.70
2018-12-13T22:40:04.314Z,100454.84
2018-12-13T22:44:09.230Z,100451.66
2018-12-13T22:48:14.236Z,100448.44
2018-12-13T22:52:19.271Z,100452.73
2018-12-13T22:56:24.224Z,100448.34
2018-12-13T23:00:29.121Z,100447.70
2018-12-13T23:04:33.997Z,100449.32
2018-12-13T23:08:38.942Z,100450.28
2018-12-13T23:12:43.941Z,100446.87
2018-12-13T23:16:48.899Z,100445.58
2018-12-13T23:20:53.888Z,100444.28
2018-12-13T23:24:58.800Z,100447.20
2018-12-13T23:29:03.835Z,100442.02
2018-12-13T23:33:08.825Z,100437.81
2018-12-13T23:37:13.749Z,100438.22
2018-12-13T23:41:18.701Z,100435.81
2018-12-13T23:45:23.664Z,100437.66
2018-12-13T23:49:28.630Z,100434.19
2018-12-13T23:57:59.382Z,100428.20
